Home > Products > Valid Products > MTR

000
SAUS43 KMQT 031457
MTRP53
METAR KP53 031456Z AUTO 07004KT 21/17 A2998 RMK AO1 SLP151 T02110172
53004





000
SAUS43 KMQT 031456
MTRP59
METAR KP59 031451Z AUTO 00000KT 17/13 A3000 RMK AO1 SLP155 T01670133
53003





000
SAUS43 KMQT 031357
MTRP53
METAR KP53 031356Z AUTO 02003KT 21/17 A2997 RMK AO1 SLP147 T02060167





000
SAUS43 KMQT 031356
MTRP59
METAR KP59 031351Z AUTO VRB03KT 17/13 A3000 RMK AO1 SLP154 T01720133





000
SAUS43 KMQT 031356
MTRP59
METAR KP59 031351Z AUTO VRB03KT 17/13 A3000 RMK AO1 SLP154 T01720133





000
SAUS43 KMQT 031257
MTRP53
METAR KP53 031256Z AUTO 36004KT 21/17 A2997 RMK AO1 SLP149 T02060172





000
SAUS43 KMQT 031257
MTRP53
METAR KP53 031256Z AUTO 36004KT 21/17 A2997 RMK AO1 SLP149 T02060172





000
SAUS43 KMQT 031255
MTRP59
METAR KP59 031251Z AUTO 00000KT 16/13 A2999 RMK AO1 SLP153 T01610133





000
SAUS43 KMQT 031255
MTRP59
METAR KP59 031251Z AUTO 00000KT 16/13 A2999 RMK AO1 SLP153 T01610133





000
SAUS43 KMQT 031157
MTRP53
METAR KP53 031156Z AUTO 36003KT 19/17 A2997 RMK AO1 SLP147 70013
T01940172 10200 20189 53012





000
SAUS43 KMQT 031157
MTRP53
METAR KP53 031156Z AUTO 36003KT 19/17 A2997 RMK AO1 SLP147 70013
T01940172 10200 20189 53012





000
SAUS43 KMQT 031156
MTRP59
METAR KP59 031151Z AUTO 00000KT 13/12 A2999 RMK AO1 SLP153 T01330122
10161 20128 53010





000
SAUS43 KMQT 031057
MTRP53
METAR KP53 031056Z AUTO 00000KT 19/17 A2994 RMK AO1 SLP138 T01940172





000
SAUS43 KMQT 031057
MTRP53
METAR KP53 031056Z AUTO 00000KT 19/17 A2994 RMK AO1 SLP138 T01940172





000
SAUS43 KMQT 031056
MTRP59
METAR KP59 031051Z AUTO 00000KT 14/12 A2998 RMK AO1 SLP147 T01390122





000
SAUS43 KMQT 031056
MTRP59
METAR KP59 031051Z AUTO 00000KT 14/12 A2998 RMK AO1 SLP147 T01390122





000
SAUS43 KMQT 030957
MTRP53
METAR KP53 030956Z AUTO 32004KT 20/17 A2993 RMK AO1 SLP134 T02000172





000
SAUS43 KMQT 030956
MTRP59
METAR KP59 030951Z AUTO 23004KT 14/12 A2997 RMK AO1 SLP145 T01390122





000
SAUS43 KMQT 030903 COR
MTRP53
METAR KP53 030856Z AUTO 00000KT 20/18 A2993 RMK AO1 SLP134 T02000178
56013





000
SAUS43 KMQT 030900 COR
MTRP59
METAR KP59 030851Z AUTO 25005KT 14/13 A2996 RMK AO1 SLP142 T01440128
56003





000
SAUS43 KMQT 030800 COR
MTRP59
METAR KP59 030751Z AUTO 25003KT 15/13 A2996 RMK AO1 SLP143 T01500133





000
SAUS43 KMQT 030757
MTRP53
METAR KP53 030756Z AUTO 04005KT 19/17 A2994 RMK AO1 SLP139 T01940172





000
SAUS43 KMQT 030757
MTRP53
METAR KP53 030756Z AUTO 04005KT 19/17 A2994 RMK AO1 SLP139 T01940172





000
SAUS43 KMQT 030700 COR
MTRP59
METAR KP59 030651Z AUTO 24005KT 16/14 A2996 RMK AO1 SLP143 T01560139





000
SAUS43 KMQT 030700 COR
MTRP59
METAR KP59 030651Z AUTO 24005KT 16/14 A2996 RMK AO1 SLP143 T01560139





000
SAUS43 KMQT 030658
MTRP53
METAR KP53 030656Z AUTO 04014KT 19/17 A2995 RMK AO1 SLP142 T01890172





000
SAUS43 KMQT 030658
MTRP53
METAR KP53 030656Z AUTO 04014KT 19/17 A2995 RMK AO1 SLP142 T01890172





000
SAUS43 KMQT 030557
MTRP53
METAR KP53 030556Z AUTO 00000KT 19/17 A2997 RMK AO1 SLP148 P0002
60003 T01940172 10206 20189 51002





000
SAUS43 KMQT 030557
MTRP53
METAR KP53 030556Z AUTO 00000KT 19/17 A2997 RMK AO1 SLP148 P0002
60003 T01940172 10206 20189 51002





000
SAUS43 KMQT 030556
MTRP59
METAR KP59 030551Z AUTO 24004KT 16/14 A2997 RMK AO1 SLP145 T01610144
10194 20161 58002





000
SAUS43 KMQT 030556
MTRP59
METAR KP59 030551Z AUTO 24004KT 16/14 A2997 RMK AO1 SLP145 T01610144
10194 20161 58002





000
SAUS43 KMQT 030457
MTRP53
METAR KP53 030456Z AUTO 00000KT 19/18 A2997 RMK AO1 SLP148 P0001
T01940178 402280189





000
SAUS43 KMQT 030456
MTRP59
METAR KP59 030451Z AUTO 23004KT 17/16 A2998 RMK AO1 SLP146 T01720156
402330150





000
SAUS43 KMQT 030403 COR
MTRP53
METAR KP53 030356Z AUTO 19004KT 19/18 A2998 RMK AO1 SLP152 T01890178





000
SAUS43 KMQT 030403 COR
MTRP53
METAR KP53 030356Z AUTO 19004KT 19/18 A2998 RMK AO1 SLP152 T01890178





000
SAUS43 KMQT 030357
MTRP59
METAR KP59 030351Z AUTO 24004KT 17/16 A2998 RMK AO1 SLP147 T01720161





000
SAUS43 KMQT 030258
MTRP53
METAR KP53 030256Z AUTO 07003KT 19/18 A2996 RMK AO1 SLP146 T01890178
55003





000
SAUS43 KMQT 030256
MTRP59
METAR KP59 030251Z AUTO VRB04KT 18/17 A2998 RMK AO1 SLP146 T01780167
51004





000
SAUS43 KMQT 030256
MTRP59
METAR KP59 030251Z AUTO VRB04KT 18/17 A2998 RMK AO1 SLP146 T01780167
51004





000
SAUS43 KMQT 030158
MTRP53
METAR KP53 030156Z AUTO 34004KT 19/18 A2996 RMK AO1 SLP144 T01890178





000
SAUS43 KMQT 030156
MTRP59
METAR KP59 030151Z AUTO VRB04KT 18/17 A2997 RMK AO1 SLP145 T01830167





000
SAUS43 KMQT 030156
MTRP59
METAR KP59 030151Z AUTO VRB04KT 18/17 A2997 RMK AO1 SLP145 T01830167





000
SAUS43 KMQT 030057
MTRP53
METAR KP53 030056Z AUTO 01003KT 19/18 A2996 RMK AO1 SLP145 T01890178





000
SAUS43 KMQT 030057
MTRP53
METAR KP53 030056Z AUTO 01003KT 19/18 A2996 RMK AO1 SLP145 T01890178





000
SAUS43 KMQT 030056
MTRP59
METAR KP59 030051Z AUTO 00000KT 19/17 A2997 RMK AO1 SLP145 T01890167





000
SAUS43 KMQT 022357
MTRP53
METAR KP53 022356Z AUTO 06004KT 19/18 A2997 RMK AO1 SLP149 60003
T01940178 10228 20189 50002





000
SAUS43 KMQT 022356
MTRP59
METAR KP59 022351Z AUTO 16004KT 18/17 A2996 RMK AO1 SLP142 T01830167
10217 20178 53004





000
SAUS43 KMQT 022356
MTRP59
METAR KP59 022351Z AUTO 16004KT 18/17 A2996 RMK AO1 SLP142 T01830167
10217 20178 53004





000
SAUS43 KMQT 022257
MTRP53
METAR KP53 022256Z AUTO 06004KT 19/18 A2998 RMK AO1 SLP151 T01940178





000
SAUS43 KMQT 022256
MTRP59
METAR KP59 022251Z AUTO 07003KT 21/16 A2996 RMK AO1 SLP140 T02060161





000
SAUS43 KMQT 022203 COR
MTRP53
METAR KP53 022156Z AUTO 03007KT 20/18 A2997 RMK AO1 SLP147 T02000183





000
SAUS43 KMQT 022155
MTRP59
METAR KP59 022151Z AUTO 00000KT 20/17 A2995 RMK AO1 SLP138 T02000172





000
SAUS43 KMQT 022057
MTRP53
METAR KP53 022056Z AUTO VRB05KT 21/19 A2997 RMK AO1 SLP146 60003
T02110189 56017





000
SAUS43 KMQT 022056
MTRP59
METAR KP59 022051Z AUTO 00000KT 21/17 A2995 RMK AO1 SLP136 T02110172
56023





000
SAUS43 KMQT 021957
MTRP53
METAR KP53 021956Z AUTO 00000KT 22/19 A2997 RMK AO1 SLP149 T02170189





000
SAUS43 KMQT 021957
MTRP53
METAR KP53 021956Z AUTO 00000KT 22/19 A2997 RMK AO1 SLP149 T02170189





000
SAUS43 KMQT 021956
MTRP59
METAR KP59 021951Z AUTO 00000KT 20/17 A2997 RMK AO1 SLP144 T02000167





000
SAUS43 KMQT 021956
MTRP59
METAR KP59 021951Z AUTO 00000KT 20/17 A2997 RMK AO1 SLP144 T02000167





000
SAUS43 KMQT 021857
MTRP53
METAR KP53 021856Z AUTO 32003KT 19/18 A2998 RMK AO1 SLP151 P0003
T01940178





000
SAUS43 KMQT 021857
MTRP53
METAR KP53 021856Z AUTO 32003KT 19/18 A2998 RMK AO1 SLP151 P0003
T01940178





000
SAUS43 KMQT 021856
MTRP59
METAR KP59 021851Z AUTO 00000KT 19/16 A2999 RMK AO1 SLP150 T01890161





000
SAUS43 KMQT 021856
MTRP59
METAR KP59 021851Z AUTO 00000KT 19/16 A2999 RMK AO1 SLP150 T01890161





000
SAUS43 KMQT 021757
MTRP53
METAR KP53 021756Z AUTO 06009KT 19/18 A3002 RMK AO1 PRESFR SLP164
P0007 60007 T01890178 10206 20189 50010





000
SAUS43 KMQT 021756
MTRP59
METAR KP59 021751Z AUTO 35007KT 19/16 A3002 RMK AO1 SLP160 T01890161
10233 20156 50010





000
SAUS43 KMQT 021703 COR
MTRP53
METAR KP53 021656Z AUTO 03003KT 19/18 A3003 RMK AO1 SLP169 T01940178





000
SAUS43 KMQT 021703 COR
MTRP53
METAR KP53 021656Z AUTO 03003KT 19/18 A3003 RMK AO1 SLP169 T01940178





000
SAUS43 KMQT 021656
MTRP59
METAR KP59 021651Z AUTO 25006KT 22/18 A3003 RMK AO1 SLP162 T02170178





000
SAUS43 KMQT 021656
MTRP59
METAR KP59 021651Z AUTO 25006KT 22/18 A3003 RMK AO1 SLP162 T02170178





000
SAUS43 KMQT 021604 COR
MTRP53
METAR KP53 021556Z AUTO 03006KT 19/18 A3000 RMK AO1 SLP158 T01940178





000
SAUS43 KMQT 021604 COR
MTRP53
METAR KP53 021556Z AUTO 03006KT 19/18 A3000 RMK AO1 SLP158 T01940178





000
SAUS43 KMQT 021503 COR
MTRP53
METAR KP53 021456Z AUTO 00000KT 21/19 A2999 RMK AO1 SLP153 T02060189
51003





000
SAUS43 KMQT 021503 COR
MTRP53
METAR KP53 021456Z AUTO 00000KT 21/19 A2999 RMK AO1 SLP153 T02060189
51003





000
SAUS43 KMQT 021403 COR
MTRP53
METAR KP53 021356Z AUTO 00000KT 21/19 A2998 RMK AO1 SLP151 T02060194





000
SAUS43 KMQT 021403 COR
MTRP53
METAR KP53 021356Z AUTO 00000KT 21/19 A2998 RMK AO1 SLP151 T02060194





000
SAUS43 KMQT 021303 COR
MTRP53
METAR KP53 021256Z AUTO 05005KT 19/18 A2999 RMK AO1 SLP153 T01940178





000
SAUS43 KMQT 021303 COR
MTRP53
METAR KP53 021256Z AUTO 05005KT 19/18 A2999 RMK AO1 SLP153 T01940178





000
SAUS43 KMQT 021203 COR
MTRP53
METAR KP53 021156Z AUTO 00000KT 19/18 A2998 RMK AO1 SLP149 T01940183
10211 20189 53015





000
SAUS43 KMQT 021203 COR
MTRP53
METAR KP53 021156Z AUTO 00000KT 19/18 A2998 RMK AO1 SLP149 T01940183
10211 20189 53015





000
SAUS43 KMQT 021103 COR
MTRP53
METAR KP53 021056Z AUTO 00000KT 19/18 A2996 RMK AO1 SLP143 T01890178





000
SAUS43 KMQT 021103 COR
MTRP53
METAR KP53 021056Z AUTO 00000KT 19/18 A2996 RMK AO1 SLP143 T01890178





000
SAUS43 KMQT 021003 COR
MTRP53
METAR KP53 020956Z AUTO 18003KT 19/18 A2994 RMK AO1 SLP136 T01940178





000
SAUS43 KMQT 020903 COR
MTRP53
METAR KP53 020856Z AUTO 00000KT 19/18 A2993 RMK AO1 SLP134 T01940178
57002





000
SAUS43 KMQT 020903 COR
MTRP53
METAR KP53 020856Z AUTO 00000KT 19/18 A2993 RMK AO1 SLP134 T01940178
57002





000
SAUS43 KMQT 020803 COR
MTRP53
METAR KP53 020756Z AUTO 19003KT 21/18 A2994 RMK AO1 SLP134 T02060183





000
SAUS43 KMQT 020703 COR
MTRP53
METAR KP53 020656Z AUTO 00000KT 21/19 A2994 RMK AO1 SLP134 T02110189





000
SAUS43 KMQT 020703 COR
MTRP53
METAR KP53 020656Z AUTO 00000KT 21/19 A2994 RMK AO1 SLP134 T02110189





000
SAUS43 KMQT 020603 COR
MTRP53
METAR KP53 020556Z AUTO 00000KT 22/20 A2994 RMK AO1 SLP135 T02170200
10278 20206 50003





000
SAUS43 KMQT 020603 COR
MTRP53
METAR KP53 020556Z AUTO 00000KT 22/20 A2994 RMK AO1 SLP135 T02170200
10278 20206 50003





000
SAUS43 KMQT 020505 COR
MTRP53
METAR KP53 020456Z AUTO 00000KT 21/18 A2995 RMK AO1 SLP138 T02060183
403170206





000
SAUS43 KMQT 020505 COR
MTRP53
METAR KP53 020456Z AUTO 00000KT 21/18 A2995 RMK AO1 SLP138 T02060183
403170206





000
SAUS43 KMQT 020403 COR
MTRP53
METAR KP53 020356Z AUTO 00000KT 24/21 A2994 RMK AO1 SLP135 T02390211





000
SAUS43 KMQT 020303 COR
MTRP53
METAR KP53 020256Z AUTO 20004KT 24/21 A2993 RMK AO1 SLP132 T02440211
51010





000
SAUS43 KMQT 020303 COR
MTRP53
METAR KP53 020256Z AUTO 20004KT 24/21 A2993 RMK AO1 SLP132 T02440211
51010





000
SAUS43 KMQT 020203 COR
MTRP53
METAR KP53 020156Z AUTO 22005KT 25/21 A2992 RMK AO1 SLP130 T02500211





000
SAUS43 KMQT 020104 COR
MTRP53
METAR KP53 020056Z AUTO 21006KT 26/22 A2991 RMK AO1 SLP127 T02610217





000
SAUS43 KMQT 020104 COR
MTRP53
METAR KP53 020056Z AUTO 21006KT 26/22 A2991 RMK AO1 SLP127 T02610217





000
SAUS43 KMQT 020003 COR
MTRP53
METAR KP53 012356Z AUTO 18005KT 28/22 A2990 RMK AO1 SLP122 T02780217
10317 20278 53004





000
SAUS43 KMQT 012303 COR
MTRP53
METAR KP53 012256Z AUTO 19005KT 29/22 A2989 RMK AO1 SLP119 T02890222





000
SAUS43 KMQT 012203 COR
MTRP53
METAR KP53 012156Z AUTO 18010KT 30/22 A2989 RMK AO1 SLP117 T03000222





000
SAUS43 KMQT 012103 COR
MTRP53
METAR KP53 012056Z AUTO 18008KT 31/22 A2989 RMK AO1 SLP116 T03060217
58007





000
SAUS43 KMQT 012103 COR
MTRP53
METAR KP53 012056Z AUTO 18008KT 31/22 A2989 RMK AO1 SLP116 T03060217
58007





000
SAUS43 KMQT 012003 COR
MTRP53
METAR KP53 011956Z AUTO 19008G18KT 32/22 A2990 RMK AO1 SLP120
T03170222





000
SAUS43 KMQT 011903 COR
MTRP53
METAR KP53 011856Z AUTO 21008G17KT 31/22 A2990 RMK AO1 SLP120
T03110217





000
SAUS43 KMQT 011903 COR
MTRP53
METAR KP53 011856Z AUTO 21008G17KT 31/22 A2990 RMK AO1 SLP120
T03110217





000
SAUS43 KMQT 011803 COR
MTRP53
METAR KP53 011756Z AUTO 17009KT 31/22 A2991 RMK AO1 SLP124 T03060222
10306 20217 58013





000
SAUS43 KMQT 011803 COR
MTRP53
METAR KP53 011756Z AUTO 17009KT 31/22 A2991 RMK AO1 SLP124 T03060222
10306 20217 58013





000
SAUS43 KMQT 011703 COR
MTRP53
METAR KP53 011656Z AUTO 17006KT 29/22 A2993 RMK AO1 SLP133 T02890222





000
SAUS43 KMQT 011703 COR
MTRP53
METAR KP53 011656Z AUTO 17006KT 29/22 A2993 RMK AO1 SLP133 T02890222





000
SAUS43 KMQT 011604 COR
MTRP53
METAR KP53 011556Z AUTO VRB06KT 28/22 A2994 RMK AO1 SLP136 T02780217





000
SAUS43 KMQT 011503 COR
MTRP53
METAR KP53 011456Z AUTO 21009KT 26/21 A2995 RMK AO1 SLP138 T02560206
58004





000
SAUS43 KMQT 011403 COR
MTRP53
METAR KP53 011356Z AUTO 22008KT 24/20 A2995 RMK AO1 SLP140 T02390200





000
SAUS43 KMQT 011303 COR
MTRP53
METAR KP53 011256Z AUTO 21008KT 23/20 A2996 RMK AO1 SLP143 T02280200





000
SAUS43 KMQT 011303 COR
MTRP53
METAR KP53 011256Z AUTO 21008KT 23/20 A2996 RMK AO1 SLP143 T02280200





000
SAUS43 KMQT 011158
MTRP53
METAR KP53 011156Z AUTO 21008KT 22/19 A2996 RMK AO1 SLP143 T02170194
10217 20206 53002





000
SAUS43 KMQT 011158
MTRP53
METAR KP53 011156Z AUTO 21008KT 22/19 A2996 RMK AO1 SLP143 T02170194
10217 20206 53002





000
SAUS43 KMQT 011103 COR
MTRP53
METAR KP53 011056Z AUTO 22009KT 22/19 A2995 RMK AO1 SLP141 T02170189





000
SAUS43 KMQT 011103 COR
MTRP53
METAR KP53 011056Z AUTO 22009KT 22/19 A2995 RMK AO1 SLP141 T02170189





000
SAUS43 KMQT 011003 COR
MTRP53
METAR KP53 010956Z AUTO 21008KT 22/19 A2995 RMK AO1 SLP139 T02170189





000
SAUS43 KMQT 011003 COR
MTRP53
METAR KP53 010956Z AUTO 21008KT 22/19 A2995 RMK AO1 SLP139 T02170189





000
SAUS43 KMQT 010903 COR
MTRP53
METAR KP53 010856Z AUTO 20009KT 22/19 A2995 RMK AO1 SLP141 T02170189
51003





000
SAUS43 KMQT 010903 COR
MTRP53
METAR KP53 010856Z AUTO 20009KT 22/19 A2995 RMK AO1 SLP141 T02170189
51003





000
SAUS43 KMQT 010803 COR
MTRP53
METAR KP53 010756Z AUTO 20008KT 21/19 A2995 RMK AO1 SLP140 T02060189





000
SAUS43 KMQT 010703 COR
MTRP53
METAR KP53 010656Z AUTO 19008KT 21/19 A2995 RMK AO1 SLP139 T02110189





000
SAUS43 KMQT 010703 COR
MTRP53
METAR KP53 010656Z AUTO 19008KT 21/19 A2995 RMK AO1 SLP139 T02110189





000
SAUS43 KMQT 010603 COR
MTRP53
METAR KP53 010556Z AUTO 20011KT 21/18 A2994 RMK AO1 SLP137 T02060183
10233 20206 50002





000
SAUS43 KMQT 010603 COR
MTRP53
METAR KP53 010556Z AUTO 20011KT 21/18 A2994 RMK AO1 SLP137 T02060183
10233 20206 50002





000
SAUS43 KMQT 010503 COR
MTRP53
METAR KP53 010456Z AUTO 19006KT 21/18 A2995 RMK AO1 SLP140 T02060183
403000178





000
SAUS43 KMQT 010503 COR
MTRP53
METAR KP53 010456Z AUTO 19006KT 21/18 A2995 RMK AO1 SLP140 T02060183
403000178





000
SAUS43 KMQT 010403 COR
MTRP53
METAR KP53 010356Z AUTO 21009KT 22/18 A2994 RMK AO1 SLP136 T02170183





000
SAUS43 KMQT 010303 COR
MTRP53
METAR KP53 010256Z AUTO 20011KT 22/18 A2994 RMK AO1 SLP136 T02170183
50010





000
SAUS43 KMQT 010303 COR
MTRP53
METAR KP53 010256Z AUTO 20011KT 22/18 A2994 RMK AO1 SLP136 T02170183
50010





000
SAUS43 KMQT 010203 COR
MTRP53
METAR KP53 010156Z AUTO 19009KT 22/18 A2994 RMK AO1 SLP137 T02170183





000
SAUS43 KMQT 010103 COR
MTRP53
METAR KP53 010056Z AUTO 20009KT 22/18 A2993 RMK AO1 SLP134 T02220183





000
SAUS43 KMQT 010003 COR
MTRP53
METAR KP53 312356Z AUTO 19009G15KT 23/18 A2991 RMK AO1 SLP126
T02330183 10300 20233 58001





000
SAUS43 KMQT 010003 COR
MTRP53
METAR KP53 312356Z AUTO 19009G15KT 23/18 A2991 RMK AO1 SLP126
T02330183 10300 20233 58001





000
SAUS43 KMQT 312303 COR
MTRP53
METAR KP53 312256Z AUTO 19011G16KT 25/18 A2992 RMK AO1 SLP130
T02500183





000
SAUS43 KMQT 312303 COR
MTRP53
METAR KP53 312256Z AUTO 19011G16KT 25/18 A2992 RMK AO1 SLP130
T02500183





000
SAUS43 KMQT 312203 COR
MTRP53
METAR KP53 312156Z AUTO 17008G16KT 27/18 A2991 RMK AO1 SLP127
T02720183





000
SAUS43 KMQT 312103 COR
MTRP53
METAR KP53 312056Z AUTO 18009G14KT 29/18 A2991 RMK AO1 SLP126
T02940183 55008





000
SAUS43 KMQT 312103 COR
MTRP53
METAR KP53 312056Z AUTO 18009G14KT 29/18 A2991 RMK AO1 SLP126
T02940183 55008





000
SAUS43 KMQT 312003 COR
MTRP53
METAR KP53 311956Z AUTO 17008G14KT 29/19 A2991 RMK AO1 SLP126
T02940189





000
SAUS43 KMQT 311903 COR
MTRP53
METAR KP53 311856Z AUTO 17009G15KT 29/19 A2993 RMK AO1 SLP131
T02890189





000
SAUS43 KMQT 311803 COR
MTRP53
METAR KP53 311756Z AUTO 19007KT 28/19 A2994 RMK AO1 SLP134 T02830189
10283 20178 58011





000
SAUS43 KMQT 311803 COR
MTRP53
METAR KP53 311756Z AUTO 19007KT 28/19 A2994 RMK AO1 SLP134 T02830189
10283 20178 58011





000
SAUS43 KMQT 311703 COR
MTRP53
METAR KP53 311656Z AUTO 19009KT 28/18 A2995 RMK AO1 SLP140 T02780183





000
SAUS43 KMQT 311703 COR
MTRP53
METAR KP53 311656Z AUTO 19009KT 28/18 A2995 RMK AO1 SLP140 T02780183





000
SAUS43 KMQT 311603 COR
MTRP53
METAR KP53 311556Z AUTO 17006KT 26/18 A2996 RMK AO1 SLP143 T02610183





    US Dept of Commerce
    National Oceanic and Atmospheric Administration
    National Weather Service
    1325 East West Highway
    Silver Spring, MD 20910
    Page Author: NWS Internet Services Team
Disclaimer
Information Quality
Credits
Glossary
Privacy Policy
Freedom of Information Act (FOIA)
About Us
Career Opportunities